Data for 10/12/2009

Time Sea-Level Adjusted Pressure Absolute Pressure Temperature Relative Humidity Dew Point   
(mb) (inHg) (mb) (inHg) (C) (F) (%) (C) (F)
00:05 1014 29.94 843 24.89 -11.5 11.3 75 -15.1 4.8
00:10 1014 29.94 843 24.89 -11.5 11.3 75 -15 4.9
00:15 1014 29.94 843 24.89 -11.5 11.3 76 -15 5
00:20 1014 29.94 843 24.89 -11.5 11.2 76 -15 5
00:25 1014 29.94 843 24.89 -11.5 11.4 75 -15 4.9
00:30 1014 29.94 843 24.89 -11.4 11.5 73 -15.2 4.6
00:35 1014 29.94 843 24.89 -11.3 11.7 73 -15.2 4.7
00:40 1014 29.94 843 24.89 -11.2 11.8 73 -15.2 4.6
00:45 1014 29.94 843 24.89 -11.2 11.9 73 -15.1 4.9
00:50 1014 29.94 843 24.89 -11.2 11.8 73 -15.1 4.8
00:55 1014 29.94 843 24.89 -11.1 11.9 73 -15 4.9
01:00 1014 29.94 843 24.89 -11.1 12 74 -14.9 5.2
01:05 1014 29.94 843 24.89 -11.1 12 74 -14.9 5.2
01:10 1014 29.94 843 24.89 -11.1 12 74 -14.8 5.3
01:15 1014 29.94 843 24.89 -11.1 12 73 -15 5
01:20 1014 29.94 843 24.89 -10.9 12.3 72 -15.1 4.9
01:25 1014 29.94 843 24.89 -10.8 12.6 72 -14.9 5.2
01:30 1014 29.94 843 24.89 -10.8 12.6 72 -14.9 5.2
01:35 1014 29.94 843 24.89 -10.9 12.4 72 -15 5.1
01:40 1014 29.94 843 24.89 -10.9 12.4 72 -15 4.9
01:45 1014 29.94 843 24.89 -10.8 12.7 71 -15 4.9
01:50 1014 29.94 843 24.89 -10.8 12.6 71 -15.1 4.8
01:55 1014 29.94 843 24.89 -10.7 12.7 70 -15.2 4.7
02:00 1014 29.94 843 24.89 -10.7 12.8 70 -15.1 4.8
02:05 1014 29.94 843 24.89 -10.6 12.9 70 -15.1 4.8
02:10 1014 29.94 843 24.89 -10.7 12.8 70 -15.2 4.7
02:15 1014 29.94 843 24.89 -10.6 13 70 -15.1 4.9
02:20 1014 29.94 843 24.89 -10.6 13 69 -15.1 4.8
02:25 1014 29.94 843 24.89 -10.5 13.1 69 -15.1 4.9
02:30 1014 29.94 843 24.89 -10.5 13.1 70 -15 5
02:35 1014 29.94 843 24.89 -10.6 13 70 -15.1 4.9
02:40 1014 29.94 843 24.89 -10.6 12.9 70 -15.1 4.9
02:45 1014 29.94 843 24.89 -10.7 12.8 70 -15.1 4.8
02:50 1014 29.94 843 24.89 -10.6 13 69 -15.2 4.7
02:55 1014 29.94 843 24.89 -10.6 13 70 -15.1 4.9
03:00 1014 29.94 843 24.89 -10.7 12.7 70 -15.1 4.8
03:05 1014 29.94 843 24.89 -10.7 12.8 70 -15.1 4.9
03:10 1014 29.94 843 24.89 -10.7 12.8 71 -15 5
03:15 1014 29.94 843 24.89 -10.7 12.7 71 -14.9 5.1
03:20 1014 29.94 843 24.89 -10.8 12.5 72 -15 5
03:25 1014 29.94 843 24.89 -10.8 12.5 71 -15.1 4.8
03:30 1014 29.94 843 24.89 -10.8 12.7 71 -15.1 4.9
03:35 1014 29.94 843 24.89 -10.7 12.8 71 -15 5
03:40 1014 29.94 843 24.89 -10.7 12.8 71 -15 5
03:45 1014 29.94 843 24.89 -10.7 12.7 71 -15 5.1
03:50 1014 29.94 843 24.89 -10.8 12.6 72 -15 5.1
03:55 1014 29.94 843 24.89 -10.9 12.3 72 -15 5
04:00 1014 29.94 843 24.89 -11.1 12.1 73 -15.1 4.9
04:05 1014 29.94 843 24.89 -11.1 11.9 73 -15.1 4.8
04:10 1014 29.94 843 24.89 -11.2 11.9 73 -15.1 4.8
04:15 1013 29.91 843 24.89 -11.3 11.7 73 -15.1 4.8
04:20 1013 29.91 843 24.89 -11.4 11.6 74 -15.2 4.7
04:25 1013 29.91 843 24.89 -11.3 11.6 73 -15.2 4.7
04:30 1013 29.91 843 24.89 -11.2 11.8 73 -15.1 4.7
04:35 1014 29.94 843 24.89 -11.2 11.8 73 -15.2 4.7
04:40 1014 29.94 843 24.89 -11.2 11.8 73 -15.1 4.8
04:45 1014 29.94 843 24.89 -11.2 11.8 73 -15.1 4.8
04:50 1014 29.94 843 24.89 -11.2 11.8 73 -15.1 4.8
04:55 1014 29.94 843 24.89 -11.2 11.8 74 -15.1 4.9
05:00 1014 29.94 843 24.89 -11.1 12 73 -15 5
05:05 1014 29.94 843 24.89 -11.1 12 73 -15 5
05:10 1014 29.94 843 24.89 -11.1 12 74 -14.9 5.1
05:15 1014 29.94 843 24.89 -11.1 12.1 74 -14.9 5.2
05:20 1014 29.94 843 24.89 -11 12.1 74 -14.9 5.3
05:25 1014 29.94 843 24.89 -11 12.2 74 -14.8 5.3
05:30 1014 29.94 843 24.89 -11 12.2 74 -14.8 5.3
05:35 1014 29.94 843 24.89 -11.1 12.1 74 -14.8 5.4
05:40 1014 29.94 843 24.89 -11.1 12.1 74 -14.7 5.5
05:45 1014 29.94 843 24.89 -11 12.2 74 -14.7 5.5
05:50 1014 29.94 843 24.89 -11 12.2 75 -14.7 5.6
05:55 1014 29.94 843 24.89 -11 12.2 74 -14.7 5.5
06:00 1014 29.94 843 24.89 -11 12.1 75 -14.7 5.5
06:05 1014 29.94 843 24.89 -11 12.1 74 -14.7 5.5
06:10 1014 29.94 843 24.89 -11 12.2 75 -14.7 5.6
06:15 1014 29.94 843 24.89 -11 12.2 75 -14.6 5.6
06:20 1014 29.94 843 24.89 -11 12.3 75 -14.6 5.7
06:25 1014 29.94 843 24.89 -11 12.2 74 -14.7 5.5
06:30 1013 29.91 843 24.89 -11 12.2 75 -14.6 5.7
06:35 1013 29.91 843 24.89 -11 12.2 75 -14.6 5.7
06:40 1013 29.91 843 24.89 -11 12.2 75 -14.6 5.7
06:45 1013 29.91 843 24.89 -11 12.2 75 -14.6 5.7
06:50 1013 29.91 843 24.89 -11 12.3 75 -14.6 5.7
06:55 1013 29.91 843 24.89 -10.9 12.3 75 -14.6 5.7
07:00 1014 29.94 843 24.89 -10.9 12.3 75 -14.6 5.8
07:05 1014 29.94 843 24.89 -10.9 12.4 75 -14.6 5.8
07:10 1014 29.94 843 24.89 -10.9 12.3 75 -14.5 5.9
07:15 1014 29.94 843 24.89 -11 12.3 75 -14.5 5.9
07:20 1014 29.94 843 24.89 -11 12.2 76 -14.5 5.9
07:25 1014 29.94 843 24.89 -11 12.1 76 -14.5 5.9
07:30 1014 29.94 843 24.89 -11 12.2 76 -14.5 5.9
07:35 1014 29.94 843 24.89 -11 12.1 76 -14.5 5.8
07:40 1014 29.94 843 24.89 -11 12.1 76 -14.5 5.9
07:45 1014 29.94 843 24.89 -11 12.1 76 -14.5 5.9
07:50 1014 29.94 843 24.89 -11.1 12.1 76 -14.5 5.9
07:55 1014 29.94 843 24.89 -11 12.1 76 -14.5 5.9
08:00 1014 29.94 843 24.89 -11 12.2 76 -14.5 5.9
08:05 1014 29.94 843 24.89 -11 12.3 76 -14.5 6
08:10 1014 29.94 843 24.89 -10.9 12.3 76 -14.4 6.1
08:15 1014 29.94 843 24.89 -10.9 12.4 76 -14.4 6.1
08:20 1014 29.94 843 24.89 -10.8 12.5 76 -14.3 6.2
08:25 1014 29.94 843 24.89 -10.7 12.7 76 -14.2 6.4
08:30 1014 29.94 843 24.89 -10.7 12.8 75 -14.3 6.3
08:35 1014 29.94 843 24.89 -10.6 12.9 75 -14.3 6.3
08:40 1014 29.94 843 24.89 -10.6 13 75 -14.2 6.5
08:45 1014 29.94 843 24.89 -10.5 13.1 75 -14.2 6.5
08:50 1014 29.94 843 24.89 -10.3 13.4 74 -14.2 6.5
08:55 1014 29.94 843 24.89 -10.1 13.8 73 -14 6.7
09:00 1014 29.94 843 24.89 -9.7 14.5 72 -14 6.9
09:05 1014 29.94 843 24.89 -9.7 14.5 72 -14 6.9
09:10 1014 29.94 843 24.89 -9.8 14.3 71 -14.1 6.7
09:15 1014 29.94 843 24.89 -9.7 14.5 71 -14 6.8
09:20 1014 29.94 843 24.89 -9.7 14.6 71 -14 6.8
09:25 1014 29.94 843 24.89 -9.7 14.5 72 -13.9 6.9
09:30 1014 29.94 843 24.89 -9.6 14.8 70 -14.1 6.7
09:35 1014 29.94 843 24.89 -9.5 14.9 71 -13.9 7
09:40 1014 29.94 843 24.89 -9.2 15.4 70 -13.8 7.1
09:45 1014 29.94 843 24.89 -9.1 15.7 69 -13.8 7.2
09:50 1014 29.94 843 24.89 -9.2 15.4 69 -13.9 7
09:55 1014 29.94 843 24.89 -9.3 15.3 70 -13.8 7.2
10:00 1014 29.94 843 24.89 -9 15.8 68 -13.9 7
10:05 1014 29.94 843 24.89 -8.7 16.4 67 -13.8 7.2
10:10 1014 29.94 843 24.89 -8.4 16.9 66 -13.7 7.4
10:15 1014 29.94 843 24.89 -8.2 17.3 66 -13.4 7.9
10:20 1014 29.94 843 24.89 -7.7 18.2 65 -13.1 8.5
10:25 1014 29.94 843 24.89 -7.7 18.2 65 -13.1 8.4
10:30 1014 29.94 843 24.89 -8 17.6 66 -13.2 8.3
10:35 1014 29.94 843 24.89 -8 17.7 66 -13.1 8.3
10:40 1014 29.94 843 24.89 -8.1 17.5 66 -13.3 8.1
10:45 1014 29.94 843 24.89 -7.7 18.2 66 -13.1 8.5
10:50 1014 29.94 843 24.89 -7.6 18.3 66 -12.9 8.7
10:55 1014 29.94 843 24.89 -7.5 18.6 66 -12.8 8.9
11:00 1014 29.94 843 24.89 -7.2 19 65 -12.8 9
11:05 1014 29.94 843 24.89 -7 19.5 65 -12.5 9.5
11:10 1014 29.94 843 24.89 -7.3 19 67 -12.4 9.6
11:15 1014 29.94 843 24.89 -7.1 19.2 66 -12.4 9.6
11:20 1014 29.94 843 24.89 -7.1 19.2 65 -12.7 9.1
11:25 1014 29.94 843 24.89 -7 19.4 63 -12.9 8.9
11:30 1013 29.91 843 24.89 -6.6 20.1 64 -12.4 9.7
11:35 1014 29.94 843 24.89 -6.4 20.5 65 -12 10.3
11:40 1014 29.94 843 24.89 -6.5 20.3 64 -12.2 10.1
11:45 1014 29.94 843 24.89 -6.4 20.5 63 -12.2 10
11:50 1014 29.94 843 24.89 -6.3 20.6 62 -12.4 9.7
11:55 1014 29.94 843 24.89 -6.1 21.1 62 -12.2 10
12:00 1014 29.94 843 24.89 -5.8 21.6 63 -11.7 11
12:05 1014 29.94 843 24.89 -5.8 21.5 63 -11.8 10.8
12:10 1013 29.91 843 24.89 -5.9 21.3 65 -11.6 11.2
12:15 1013 29.91 843 24.89 -5.7 21.7 65 -11.4 11.5
12:20 1013 29.91 843 24.89 -5.8 21.6 63 -11.7 11
12:25 1013 29.91 843 24.89 -5.6 21.9 64 -11.4 11.5
12:30 1013 29.91 843 24.89 -5.6 22 63 -11.5 11.3
12:35 1013 29.91 843 24.89 -5.6 22 64 -11.3 11.6
12:40 1013 29.91 843 24.89 -5.5 22 64 -11.3 11.7
12:45 1013 29.91 843 24.89 -5.4 22.2 63 -11.4 11.6
12:50 1013 29.91 842 24.86 -5.5 22.1 65 -11.1 12
12:55 1013 29.91 842 24.86 -5.3 22.4 64 -11.1 12
13:00 1013 29.91 842 24.86 -5.2 22.6 64 -11.1 12
13:05 1013 29.91 842 24.86 -5.3 22.5 63 -11.3 11.7
13:10 1013 29.91 842 24.86 -5.1 22.9 63 -11.1 12.1
13:15 1013 29.91 842 24.86 -5.2 22.6 65 -10.9 12.4
13:20 1013 29.91 842 24.86 -5.1 22.8 64 -10.9 12.5
13:25 1013 29.91 842 24.86 -4.7 23.5 63 -10.7 12.7
13:30 1013 29.91 842 24.86 -5.1 22.7 64 -10.9 12.4
13:35 1013 29.91 842 24.86 -5.2 22.6 64 -11 12.3
13:40 1013 29.91 842 24.86 -5 23 65 -10.6 12.9
13:45 1013 29.91 842 24.86 -5 23 65 -10.5 13.1
13:50 1013 29.91 842 24.86 -5.2 22.7 67 -10.4 13.3
13:55 1013 29.91 842 24.86 -5 23.1 66 -10.3 13.4
14:00 1013 29.91 842 24.86 -4.9 23.2 65 -10.4 13.2
14:05 1013 29.91 842 24.86 -5.1 22.9 65 -10.7 12.8
14:10 1013 29.91 842 24.86 -4.9 23.3 65 -10.5 13.2
14:15 1013 29.91 842 24.86 -4.5 23.9 63 -10.6 13
14:20 1013 29.91 842 24.86 -4.9 23.1 66 -10.3 13.4
14:25 1012 29.88 842 24.86 -5 23.1 66 -10.3 13.5
14:30 1012 29.88 842 24.86 -4.5 23.8 65 -10.2 13.7
14:35 1012 29.88 842 24.86 -4.5 23.9 66 -10 14
14:40 1012 29.88 841 24.83 -4.7 23.5 65 -10.4 13.3
14:45 1012 29.88 841 24.83 -4.6 23.8 65 -10.2 13.7
14:50 1012 29.88 841 24.83 -4.3 24.2 66 -9.7 14.5
14:55 1012 29.88 841 24.83 -4.5 24 65 -10.1 13.7
15:00 1012 29.88 841 24.83 -4.7 23.6 66 -10 14
15:05 1012 29.88 841 24.83 -4.6 23.7 65 -10.1 13.8
15:10 1012 29.88 841 24.83 -4.6 23.7 65 -10.2 13.6
15:15 1012 29.88 841 24.83 -4.5 23.9 66 -10 14
15:20 1012 29.88 841 24.83 -4.6 23.7 67 -9.9 14.3
15:25 1012 29.88 841 24.83 -4.7 23.6 67 -9.9 14.3
15:30 1012 29.88 841 24.83 -4.6 23.8 66 -9.9 14.2
15:35 1012 29.88 841 24.83 -4.5 24 67 -9.7 14.5
15:40 1012 29.88 841 24.83 -4.3 24.2 67 -9.5 14.8
15:45 1012 29.88 841 24.83 -4.3 24.2 66 -9.7 14.5
15:50 1012 29.88 841 24.83 -4.2 24.5 66 -9.6 14.7
15:55 1012 29.88 841 24.83 -3.9 24.9 66 -9.3 15.3
16:00 1012 29.88 841 24.83 -3.9 25 67 -9.2 15.4
16:05 1012 29.88 841 24.83 -3.7 25.3 67 -9.1 15.7
16:10 1012 29.88 841 24.83 -3.7 25.4 67 -9 15.8
16:15 1012 29.88 841 24.83 -4 24.8 67 -9.2 15.4
16:20 1012 29.88 841 24.83 -3.9 24.9 67 -9.2 15.4
16:25 1012 29.88 841 24.83 -4 24.7 67 -9.3 15.3
16:30 1012 29.88 841 24.83 -4.1 24.5 68 -9.2 15.4
16:35 1012 29.88 841 24.83 -4.1 24.6 67 -9.3 15.2
16:40 1012 29.88 841 24.83 -4.4 24.2 69 -9.3 15.2
16:45 1012 29.88 841 24.83 -4.4 24.1 68 -9.4 15.1
16:50 1012 29.88 841 24.83 -4.4 24.1 69 -9.3 15.3
16:55 1012 29.88 841 24.83 -4.4 24.1 69 -9.3 15.3
17:00 1012 29.88 841 24.83 -4.5 23.9 70 -9.2 15.4
17:05 1012 29.88 841 24.83 -4.6 23.7 69 -9.4 15
17:10 1012 29.88 841 24.83 -4.7 23.6 69 -9.5 14.8
17:15 1012 29.88 841 24.83 -4.6 23.8 69 -9.5 14.9
17:20 1012 29.88 841 24.83 -4.6 23.7 69 -9.4 15.1
17:25 1012 29.88 841 24.83 -4.8 23.3 71 -9.3 15.3
17:30 1012 29.88 841 24.83 -4.9 23.1 71 -9.3 15.2
17:35 1012 29.88 841 24.83 -5.1 22.8 72 -9.4 15.1
17:40 1012 29.88 841 24.83 -5.3 22.5 73 -9.4 15.1
17:45 1012 29.88 841 24.83 -5.4 22.3 73 -9.4 15
17:50 1011 29.85 841 24.83 -5.5 22.1 74 -9.5 14.9
17:55 1011 29.85 841 24.83 -5.7 21.8 73 -9.8 14.4
18:00 1011 29.85 841 24.83 -5.7 21.7 73 -9.7 14.5
18:05 1011 29.85 841 24.83 -5.8 21.5 74 -9.8 14.4
18:10 1012 29.88 841 24.83 -5.9 21.3 74 -9.9 14.2
18:15 1012 29.88 841 24.83 -5.8 21.6 73 -9.8 14.4
18:20 1012 29.88 841 24.83 -5.8 21.6 74 -9.7 14.5
18:25 1012 29.88 841 24.83 -5.9 21.4 76 -9.5 14.8
18:30 1012 29.88 841 24.83 -6.1 21.1 76 -9.7 14.6
18:35 1012 29.88 841 24.83 -6.1 21.1 76 -9.6 14.7
18:40 1012 29.88 841 24.83 -6.1 21 76 -9.6 14.7
18:45 1012 29.88 841 24.83 -6.2 20.8 76 -9.7 14.5
18:50 1012 29.88 841 24.83 -6.2 20.9 76 -9.8 14.4
18:55 1012 29.88 841 24.83 -6.2 20.8 76 -9.8 14.4
19:00 1012 29.88 841 24.83 -6.2 20.8 76 -9.8 14.4
19:05 1012 29.88 841 24.83 -6.4 20.5 77 -9.7 14.5
19:10 1012 29.88 841 24.83 -6.4 20.5 77 -9.9 14.3
19:15 1012 29.88 841 24.83 -6.5 20.4 77 -9.9 14.2
19:20 1012 29.88 841 24.83 -6.4 20.4 76 -10 13.9
19:25 1012 29.88 841 24.83 -6.4 20.4 76 -9.9 14.1
19:30 1012 29.88 841 24.83 -6.4 20.4 76 -10 14
19:35 1012 29.88 841 24.83 -6.4 20.4 76 -9.9 14.1
19:40 1012 29.88 841 24.83 -6.5 20.3 76 -10 14
19:45 1012 29.88 841 24.83 -6.6 20.1 77 -10 14
19:50 1012 29.88 841 24.83 -6.6 20.1 77 -10 14.1
19:55 1012 29.88 841 24.83 -6.6 20.2 77 -9.9 14.2
20:00 1012 29.88 841 24.83 -6.4 20.4 77 -9.8 14.4
20:05 1012 29.88 841 24.83 -6.4 20.5 78 -9.7 14.6
20:10 1012 29.88 841 24.83 -6.4 20.5 79 -9.5 14.9
20:15 1012 29.88 841 24.83 -6.4 20.4 80 -9.4 15.1
20:20 1012 29.88 841 24.83 -6.4 20.6 80 -9.2 15.4
20:25 1012 29.88 841 24.83 -6.3 20.6 80 -9.3 15.3
20:30 1012 29.88 841 24.83 -6.3 20.7 81 -9.1 15.7
20:35 1012 29.88 841 24.83 -6.3 20.6 81 -9.1 15.6
20:40 1012 29.88 841 24.83 -6.3 20.7 81 -9.1 15.7
20:45 1012 29.88 841 24.83 -6.2 20.8 81 -9 15.8
20:50 1012 29.88 841 24.83 -6.3 20.7 82 -8.9 16
20:55 1012 29.88 841 24.83 -6.3 20.7 82 -8.9 16
21:00 1012 29.88 841 24.83 -6.3 20.6 82 -8.8 16.1
21:05 1012 29.88 841 24.83 -6.3 20.6 83 -8.8 16.1
21:10 1012 29.88 841 24.83 -6.3 20.6 83 -8.8 16.1
21:15 1012 29.88 841 24.83 -6.3 20.6 83 -8.7 16.3
21:20 1012 29.88 841 24.83 -6.3 20.6 83 -8.8 16.2
21:25 1012 29.88 841 24.83 -6.3 20.7 83 -8.7 16.4
21:30 1012 29.88 842 24.86 -6.2 20.8 83 -8.6 16.5
21:35 1012 29.88 842 24.86 -6.2 20.8 83 -8.6 16.5
21:40 1012 29.88 842 24.86 -6.2 20.8 83 -8.6 16.5
21:45 1012 29.88 842 24.86 -6.3 20.7 84 -8.6 16.5
21:50 1012 29.88 842 24.86 -6.2 20.8 84 -8.5 16.6
21:55 1013 29.91 842 24.86 -6.3 20.7 84 -8.6 16.6
22:00 1013 29.91 842 24.86 -6.3 20.6 85 -8.5 16.6
22:05 1012 29.88 842 24.86 -6.4 20.5 85 -8.6 16.6
22:10 1013 29.91 842 24.86 -6.3 20.6 85 -8.5 16.7
22:15 1012 29.88 842 24.86 -6.4 20.5 85 -8.5 16.7
22:20 1013 29.91 842 24.86 -6.3 20.6 85 -8.5 16.6
22:25 1013 29.91 842 24.86 -6.3 20.6 85 -8.5 16.6
22:30 1013 29.91 842 24.86 -6.4 20.5 85 -8.5 16.7
22:35 1013 29.91 842 24.86 -6.4 20.6 85 -8.5 16.7
22:40 1013 29.91 842 24.86 -6.3 20.6 85 -8.5 16.7
22:45 1013 29.91 842 24.86 -6.3 20.6 85 -8.5 16.7
22:50 1013 29.91 842 24.86 -6.4 20.6 84 -8.6 16.6
22:55 1013 29.91 842 24.86 -6.3 20.6 85 -8.5 16.6
23:00 1013 29.91 842 24.86 -6.3 20.7 85 -8.5 16.7
23:05 1012 29.88 842 24.86 -6.3 20.6 85 -8.5 16.8
23:10 1012 29.88 842 24.86 -6.3 20.6 85 -8.5 16.7
23:15 1012 29.88 842 24.86 -6.3 20.6 85 -8.4 16.9
23:20 1012 29.88 841 24.83 -6.3 20.6 85 -8.4 16.9
23:25 1012 29.88 841 24.83 -6.3 20.6 86 -8.4 17
23:30 1012 29.88 841 24.83 -6.3 20.6 86 -8.3 17
23:35 1012 29.88 841 24.83 -6.3 20.6 86 -8.3 17
23:40 1012 29.88 841 24.83 -6.3 20.7 85 -8.4 17
23:45 1012 29.88 841 24.83 -6.3 20.7 86 -8.3 17.1
23:50 1012 29.88 842 24.86 -6.3 20.7 86 -8.3 17.1
23:55 1012 29.88 842 24.86 -6.3 20.7 86 -8.3 17.1
24:00 1012 29.88 842 24.86 -6.3 20.6 86 -8.2 17.2